createdAt,value
2023-03-06T06:03:09.213Z,25.00
2023-03-06T06:04:10.118Z,25.00
2023-03-06T06:05:12.553Z,25.00
2023-03-06T06:06:10.160Z,25.00
2023-03-06T06:07:10.141Z,25.00
2023-03-06T06:08:10.144Z,25.00
2023-03-06T06:09:11.741Z,0.00
2023-03-06T06:10:10.137Z,0.00
2023-03-06T06:11:09.110Z,0.00
2023-03-06T06:12:10.114Z,0.00
2023-03-06T06:13:10.142Z,0.00
2023-03-06T06:14:10.097Z,0.00
2023-03-06T06:15:10.104Z,0.00
2023-03-06T06:16:10.158Z,0.00
2023-03-06T06:17:10.084Z,0.00
2023-03-06T06:18:10.084Z,0.00
2023-03-06T06:19:10.107Z,0.00
2023-03-06T06:20:10.058Z,0.00
2023-03-06T06:21:10.064Z,0.00
2023-03-06T06:22:10.053Z,0.00
2023-03-06T06:23:09.055Z,0.00
2023-03-06T06:24:10.032Z,0.00
2023-03-06T06:25:10.033Z,0.00
2023-03-06T06:26:09.030Z,0.00
2023-03-06T06:27:09.035Z,0.00
2023-03-06T06:28:10.027Z,0.00
2023-03-06T06:29:10.008Z,0.00
2023-03-06T06:30:09.071Z,0.00
2023-03-06T06:31:10.156Z,0.00
2023-03-06T06:32:10.214Z,0.00
2023-03-06T06:33:10.232Z,0.00
2023-03-06T06:34:10.276Z,0.00
2023-03-06T06:35:10.363Z,0.00
2023-03-06T06:36:10.389Z,0.00
2023-03-06T06:37:10.437Z,0.00
2023-03-06T06:38:10.505Z,0.00
2023-03-06T06:39:10.537Z,9.45
2023-03-06T06:40:10.597Z,25.00
2023-03-06T06:41:38.927Z,29.81
2023-03-06T06:42:29.891Z,29.93
2023-03-06T06:43:10.644Z,30.10
2023-03-06T06:44:10.626Z,26.70
2023-03-06T06:45:10.618Z,17.86
2023-03-06T06:46:44.644Z,16.99
2023-03-06T06:47:22.959Z,21.22
2023-03-06T06:48:10.693Z,29.82
2023-03-06T06:49:09.656Z,15.30
2023-03-06T06:50:10.595Z,9.52
2023-03-06T06:51:10.616Z,5.65
2023-03-06T06:52:09.578Z,7.12
2023-03-06T06:53:10.571Z,27.41
2023-03-06T06:54:10.543Z,25.00
2023-03-06T06:55:10.538Z,25.65
2023-03-06T06:56:10.528Z,25.66
2023-03-06T06:57:10.540Z,28.16
2023-03-06T06:58:09.526Z,28.44
2023-03-06T06:59:16.576Z,31.38
2023-03-06T07:00:10.507Z,31.46
2023-03-06T07:01:10.525Z,26.56
2023-03-06T07:02:10.510Z,23.31
2023-03-06T07:03:09.495Z,24.99
2023-03-06T07:04:10.590Z,26.32
2023-03-06T07:05:10.480Z,25.75
2023-03-06T07:06:10.473Z,25.26
2023-03-06T07:07:09.479Z,25.51
2023-03-06T07:08:10.466Z,31.14
2023-03-06T07:09:09.456Z,25.84
2023-03-06T07:10:09.455Z,30.99
2023-03-06T07:11:10.441Z,30.65
2023-03-06T07:12:10.441Z,27.37
2023-03-06T07:13:10.437Z,27.29
2023-03-06T07:14:10.447Z,29.42
2023-03-06T07:15:10.428Z,31.16
2023-03-06T07:16:10.454Z,31.17
2023-03-06T07:17:10.393Z,32.05
2023-03-06T07:18:09.421Z,34.17
2023-03-06T07:19:10.380Z,29.45
2023-03-06T07:20:10.402Z,38.33
2023-03-06T07:21:10.401Z,42.49
2023-03-06T07:22:10.378Z,43.06
2023-03-06T07:23:09.393Z,39.42
2023-03-06T07:24:10.341Z,46.79
2023-03-06T07:25:09.344Z,41.19
2023-03-06T07:26:10.327Z,47.73
2023-03-06T07:27:10.348Z,53.41
2023-03-06T07:28:10.397Z,64.05
2023-03-06T07:29:09.316Z,76.49
2023-03-06T07:30:10.323Z,73.52
2023-03-06T07:31:10.342Z,72.07
2023-03-06T07:32:10.315Z,71.09
2023-03-06T07:33:10.313Z,73.58
2023-03-06T07:34:10.274Z,71.98
2023-03-06T07:35:19.644Z,71.49
2023-03-06T07:36:12.729Z,71.71
2023-03-06T07:37:10.260Z,71.68
2023-03-06T07:38:10.330Z,72.30
2023-03-06T07:39:10.303Z,73.61
2023-03-06T07:40:10.235Z,77.32
2023-03-06T07:42:10.237Z,81.80
2023-03-06T07:43:19.112Z,78.09
2023-03-06T07:44:10.214Z,78.45
2023-03-06T07:45:10.235Z,78.91
2023-03-06T07:46:10.261Z,79.40
2023-03-06T07:47:10.202Z,80.80
2023-03-06T07:48:10.187Z,83.10
2023-03-06T07:49:10.179Z,78.48
2023-03-06T07:50:09.179Z,76.89
2023-03-06T07:51:10.168Z,88.24
2023-03-06T07:57:10.135Z,83.38
2023-03-06T07:58:09.374Z,90.12
2023-03-06T08:03:09.160Z,88.65
2023-03-06T08:07:10.045Z,92.10
2023-03-06T08:08:10.055Z,94.05
2023-03-06T08:10:10.024Z,95.14
2023-03-06T08:11:10.058Z,102.06
2023-03-06T08:12:10.009Z,101.56
2023-03-06T08:14:09.990Z,97.29
2023-03-06T08:21:09.078Z,99.11
2023-03-06T08:22:10.101Z,97.58
2023-03-06T08:25:09.199Z,94.67
2023-03-06T08:29:10.273Z,95.36
2023-03-06T08:32:10.345Z,93.26
2023-03-06T08:33:10.370Z,108.65
2023-03-06T08:38:09.477Z,101.36
2023-03-06T08:39:09.505Z,106.96
2023-03-06T08:49:09.692Z,114.16
2023-03-06T08:55:09.955Z,97.89
2023-03-06T09:02:10.420Z,90.24
2023-03-06T09:41:12.384Z,76.32
2023-03-06T09:42:12.386Z,73.91
2023-03-06T09:45:12.371Z,73.75
2023-03-06T10:42:11.452Z,55.64
2023-03-06T11:59:12.582Z,38.95
2023-03-06T12:10:11.568Z,34.28
2023-03-06T12:17:12.545Z,32.14
2023-03-06T12:29:12.521Z,30.62
2023-03-06T12:36:11.481Z,29.57
2023-03-06T12:41:12.476Z,27.16
2023-03-06T12:42:22.624Z,25.35
2023-03-06T12:46:12.532Z,26.15
2023-03-06T12:49:17.801Z,25.52
2023-03-06T12:56:12.397Z,28.16
2023-03-06T13:00:12.369Z,27.69
2023-03-06T13:08:12.317Z,31.50
2023-03-06T13:09:12.339Z,29.69
2023-03-06T13:12:12.287Z,28.50
2023-03-06T13:14:12.258Z,30.53
2023-03-06T14:11:11.873Z,40.06
2023-03-06T14:14:11.854Z,35.29
2023-03-06T14:16:11.975Z,40.14
2023-03-06T14:19:11.949Z,39.07
2023-03-06T14:22:11.815Z,43.65
2023-03-06T14:23:11.801Z,41.58
2023-03-06T14:26:11.798Z,39.70
2023-03-06T14:34:10.753Z,39.50
2023-03-06T14:47:11.769Z,31.94
2023-03-06T14:57:12.051Z,30.81
2023-03-06T14:59:11.117Z,37.41
2023-03-06T15:03:11.250Z,32.55
2023-03-06T15:04:12.244Z,41.82
2023-03-06T15:05:12.313Z,38.68
2023-03-06T15:09:12.420Z,34.79
2023-03-06T15:11:12.480Z,43.28
2023-03-06T15:13:12.535Z,35.18
2023-03-06T15:19:11.782Z,32.23
2023-03-06T15:22:12.925Z,53.85
2023-03-06T15:26:12.183Z,70.10
2023-03-06T15:27:12.233Z,500.00
2023-03-06T15:28:13.279Z,500.00
2023-03-06T15:30:13.406Z,500.00
2023-03-06T15:44:13.885Z,269.15
2023-03-06T15:45:13.906Z,258.46
2023-03-06T15:49:14.020Z,239.73
2023-03-06T16:28:15.374Z,179.08
2023-03-06T16:29:15.383Z,178.20
